sensor_id;sensor_type;location;lat;lon;timestamp;P1;durP1;ratioP1;P2;durP2;ratioP2
29030;SDS011;16122;50.236;11.734;2023-04-25T00:01:37;2.00;;;1.90;;
29030;SDS011;16122;50.236;11.734;2023-04-25T00:04:03;2.27;;;1.70;;
29030;SDS011;16122;50.236;11.734;2023-04-25T00:06:31;2.93;;;2.10;;
29030;SDS011;16122;50.236;11.734;2023-04-25T00:08:57;2.00;;;1.90;;
29030;SDS011;16122;50.236;11.734;2023-04-25T00:11:23;2.33;;;1.83;;
29030;SDS011;16122;50.236;11.734;2023-04-25T00:13:49;1.90;;;1.80;;
29030;SDS011;16122;50.236;11.734;2023-04-25T00:16:19;1.87;;;1.77;;
29030;SDS011;16122;50.236;11.734;2023-04-25T00:18:45;1.90;;;1.80;;
29030;SDS011;16122;50.236;11.734;2023-04-25T00:21:16;2.27;;;2.07;;
29030;SDS011;16122;50.236;11.734;2023-04-25T00:23:44;2.70;;;2.20;;
29030;SDS011;16122;50.236;11.734;2023-04-25T00:26:11;2.10;;;1.87;;
29030;SDS011;16122;50.236;11.734;2023-04-25T00:28:36;2.10;;;1.93;;
29030;SDS011;16122;50.236;11.734;2023-04-25T00:31:03;1.90;;;1.80;;
29030;SDS011;16122;50.236;11.734;2023-04-25T00:33:29;2.03;;;1.87;;
29030;SDS011;16122;50.236;11.734;2023-04-25T00:35:55;2.13;;;2.03;;
29030;SDS011;16122;50.236;11.734;2023-04-25T00:38:21;1.77;;;1.67;;
29030;SDS011;16122;50.236;11.734;2023-04-25T00:40:47;1.93;;;1.83;;
29030;SDS011;16122;50.236;11.734;2023-04-25T00:43:13;1.77;;;1.67;;
29030;SDS011;16122;50.236;11.734;2023-04-25T00:45:39;1.60;;;1.50;;
29030;SDS011;16122;50.236;11.734;2023-04-25T00:48:05;1.80;;;1.70;;
29030;SDS011;16122;50.236;11.734;2023-04-25T00:50:35;2.13;;;2.03;;
29030;SDS011;16122;50.236;11.734;2023-04-25T00:53:02;1.90;;;1.80;;
29030;SDS011;16122;50.236;11.734;2023-04-25T00:55:28;1.93;;;1.73;;
29030;SDS011;16122;50.236;11.734;2023-04-25T00:57:56;1.83;;;1.73;;
29030;SDS011;16122;50.236;11.734;2023-04-25T01:00:23;1.77;;;1.67;;
29030;SDS011;16122;50.236;11.734;2023-04-25T01:02:49;1.87;;;1.63;;
29030;SDS011;16122;50.236;11.734;2023-04-25T01:05:15;1.53;;;1.43;;
29030;SDS011;16122;50.236;11.734;2023-04-25T01:07:41;2.00;;;1.90;;
29030;SDS011;16122;50.236;11.734;2023-04-25T01:10:07;1.90;;;1.80;;
29030;SDS011;16122;50.236;11.734;2023-04-25T01:12:34;2.10;;;2.00;;
29030;SDS011;16122;50.236;11.734;2023-04-25T01:15:00;1.90;;;1.60;;
29030;SDS011;16122;50.236;11.734;2023-04-25T01:17:26;2.07;;;1.97;;
29030;SDS011;16122;50.236;11.734;2023-04-25T01:19:52;2.63;;;2.20;;
29030;SDS011;16122;50.236;11.734;2023-04-25T01:22:19;1.80;;;1.70;;
29030;SDS011;16122;50.236;11.734;2023-04-25T01:24:46;2.20;;;2.10;;
29030;SDS011;16122;50.236;11.734;2023-04-25T01:27:12;1.63;;;1.53;;
29030;SDS011;16122;50.236;11.734;2023-04-25T01:29:38;1.70;;;1.60;;
29030;SDS011;16122;50.236;11.734;2023-04-25T01:32:05;2.00;;;1.90;;
29030;SDS011;16122;50.236;11.734;2023-04-25T01:34:32;1.80;;;1.70;;
29030;SDS011;16122;50.236;11.734;2023-04-25T01:36:59;2.27;;;2.07;;
29030;SDS011;16122;50.236;11.734;2023-04-25T01:39:27;1.70;;;1.60;;
29030;SDS011;16122;50.236;11.734;2023-04-25T01:41:53;2.00;;;1.90;;
29030;SDS011;16122;50.236;11.734;2023-04-25T01:44:20;1.90;;;1.80;;
29030;SDS011;16122;50.236;11.734;2023-04-25T01:46:47;1.70;;;1.57;;
29030;SDS011;16122;50.236;11.734;2023-04-25T01:49:12;1.80;;;1.70;;
29030;SDS011;16122;50.236;11.734;2023-04-25T01:51:40;1.77;;;1.67;;
29030;SDS011;16122;50.236;11.734;2023-04-25T01:54:07;2.57;;;1.93;;
29030;SDS011;16122;50.236;11.734;2023-04-25T01:56:36;2.30;;;2.10;;
29030;SDS011;16122;50.236;11.734;2023-04-25T01:59:03;1.80;;;1.70;;
29030;SDS011;16122;50.236;11.734;2023-04-25T02:01:35;1.83;;;1.73;;
29030;SDS011;16122;50.236;11.734;2023-04-25T02:04:16;2.87;;;2.27;;
29030;SDS011;16122;50.236;11.734;2023-04-25T02:06:42;1.60;;;1.50;;
29030;SDS011;16122;50.236;11.734;2023-04-25T02:09:09;2.13;;;2.00;;
29030;SDS011;16122;50.236;11.734;2023-04-25T02:11:40;3.63;;;1.60;;
29030;SDS011;16122;50.236;11.734;2023-04-25T02:14:25;2.27;;;2.07;;
29030;SDS011;16122;50.236;11.734;2023-04-25T02:17:14;1.60;;;1.43;;
29030;SDS011;16122;50.236;11.734;2023-04-25T02:19:41;1.93;;;1.73;;
29030;SDS011;16122;50.236;11.734;2023-04-25T02:22:07;1.70;;;1.60;;
29030;SDS011;16122;50.236;11.734;2023-04-25T02:24:32;1.93;;;1.83;;
29030;SDS011;16122;50.236;11.734;2023-04-25T02:27:00;2.30;;;2.20;;
29030;SDS011;16122;50.236;11.734;2023-04-25T02:29:26;1.97;;;1.70;;
29030;SDS011;16122;50.236;11.734;2023-04-25T02:31:51;3.37;;;1.60;;
29030;SDS011;16122;50.236;11.734;2023-04-25T02:34:17;1.60;;;1.50;;
29030;SDS011;16122;50.236;11.734;2023-04-25T02:36:43;1.80;;;1.70;;
29030;SDS011;16122;50.236;11.734;2023-04-25T02:39:11;2.27;;;2.07;;
29030;SDS011;16122;50.236;11.734;2023-04-25T02:41:37;2.20;;;2.00;;
29030;SDS011;16122;50.236;11.734;2023-04-25T02:44:02;2.17;;;1.97;;
29030;SDS011;16122;50.236;11.734;2023-04-25T02:46:28;1.83;;;1.73;;
29030;SDS011;16122;50.236;11.734;2023-04-25T02:48:54;2.23;;;2.13;;
29030;SDS011;16122;50.236;11.734;2023-04-25T02:51:20;1.93;;;1.50;;
29030;SDS011;16122;50.236;11.734;2023-04-25T02:53:46;2.07;;;1.70;;
29030;SDS011;16122;50.236;11.734;2023-04-25T02:56:12;1.93;;;1.83;;
29030;SDS011;16122;50.236;11.734;2023-04-25T02:58:38;1.80;;;1.60;;
29030;SDS011;16122;50.236;11.734;2023-04-25T03:01:04;2.30;;;1.90;;
29030;SDS011;16122;50.236;11.734;2023-04-25T03:03:30;1.90;;;1.80;;
29030;SDS011;16122;50.236;11.734;2023-04-25T03:05:56;2.13;;;2.00;;
29030;SDS011;16122;50.236;11.734;2023-04-25T03:08:27;1.83;;;1.73;;
29030;SDS011;16122;50.236;11.734;2023-04-25T03:10:58;1.70;;;1.60;;
29030;SDS011;16122;50.236;11.734;2023-04-25T03:13:25;2.10;;;1.90;;
29030;SDS011;16122;50.236;11.734;2023-04-25T03:15:53;1.77;;;1.67;;
29030;SDS011;16122;50.236;11.734;2023-04-25T03:18:18;2.20;;;2.10;;
29030;SDS011;16122;50.236;11.734;2023-04-25T03:20:44;1.80;;;1.70;;
29030;SDS011;16122;50.236;11.734;2023-04-25T03:23:13;1.90;;;1.80;;
29030;SDS011;16122;50.236;11.734;2023-04-25T03:25:41;1.97;;;1.87;;
29030;SDS011;16122;50.236;11.734;2023-04-25T03:28:07;2.10;;;2.00;;
29030;SDS011;16122;50.236;11.734;2023-04-25T03:30:33;1.97;;;1.87;;
29030;SDS011;16122;50.236;11.734;2023-04-25T03:32:59;1.43;;;1.37;;
29030;SDS011;16122;50.236;11.734;2023-04-25T03:35:25;2.07;;;1.87;;
29030;SDS011;16122;50.236;11.734;2023-04-25T03:37:51;1.83;;;1.73;;
29030;SDS011;16122;50.236;11.734;2023-04-25T03:40:22;2.07;;;1.97;;
29030;SDS011;16122;50.236;11.734;2023-04-25T03:43:07;2.27;;;2.07;;
29030;SDS011;16122;50.236;11.734;2023-04-25T03:45:34;1.80;;;1.70;;
29030;SDS011;16122;50.236;11.734;2023-04-25T03:48:00;1.87;;;1.77;;
29030;SDS011;16122;50.236;11.734;2023-04-25T03:50:27;2.07;;;1.97;;
29030;SDS011;16122;50.236;11.734;2023-04-25T03:52:53;1.87;;;1.77;;
29030;SDS011;16122;50.236;11.734;2023-04-25T03:55:19;1.97;;;1.87;;
29030;SDS011;16122;50.236;11.734;2023-04-25T03:57:46;2.07;;;1.97;;
29030;SDS011;16122;50.236;11.734;2023-04-25T04:00:12;2.27;;;2.07;;
29030;SDS011;16122;50.236;11.734;2023-04-25T04:02:41;1.77;;;1.67;;
29030;SDS011;16122;50.236;11.734;2023-04-25T04:05:09;1.90;;;1.80;;
29030;SDS011;16122;50.236;11.734;2023-04-25T04:07:38;1.63;;;1.53;;
29030;SDS011;16122;50.236;11.734;2023-04-25T04:10:07;3.20;;;1.87;;
29030;SDS011;16122;50.236;11.734;2023-04-25T04:12:36;1.93;;;1.80;;
29030;SDS011;16122;50.236;11.734;2023-04-25T04:15:03;4.30;;;1.50;;
29030;SDS011;16122;50.236;11.734;2023-04-25T04:17:30;2.63;;;1.60;;
29030;SDS011;16122;50.236;11.734;2023-04-25T04:19:57;1.90;;;1.80;;
29030;SDS011;16122;50.236;11.734;2023-04-25T04:22:23;1.67;;;1.57;;
29030;SDS011;16122;50.236;11.734;2023-04-25T04:24:52;1.73;;;1.63;;
29030;SDS011;16122;50.236;11.734;2023-04-25T04:27:39;2.93;;;2.13;;
29030;SDS011;16122;50.236;11.734;2023-04-25T04:30:22;2.40;;;1.70;;
29030;SDS011;16122;50.236;11.734;2023-04-25T04:32:59;5.03;;;1.70;;
29030;SDS011;16122;50.236;11.734;2023-04-25T04:35:26;5.87;;;2.00;;
29030;SDS011;16122;50.236;11.734;2023-04-25T04:37:52;2.00;;;1.60;;
29030;SDS011;16122;50.236;11.734;2023-04-25T04:40:21;2.67;;;2.10;;
29030;SDS011;16122;50.236;11.734;2023-04-25T04:43:01;1.90;;;1.73;;
29030;SDS011;16122;50.236;11.734;2023-04-25T04:45:27;2.30;;;1.50;;
29030;SDS011;16122;50.236;11.734;2023-04-25T04:48:22;1.80;;;1.70;;
29030;SDS011;16122;50.236;11.734;2023-04-25T04:51:17;1.77;;;1.67;;
29030;SDS011;16122;50.236;11.734;2023-04-25T04:54:09;1.90;;;1.70;;
29030;SDS011;16122;50.236;11.734;2023-04-25T04:56:53;1.33;;;1.23;;
29030;SDS011;16122;50.236;11.734;2023-04-25T04:59:37;1.60;;;1.50;;
29030;SDS011;16122;50.236;11.734;2023-04-25T05:02:16;1.47;;;1.37;;
29030;SDS011;16122;50.236;11.734;2023-04-25T05:05:01;3.63;;;1.80;;
29030;SDS011;16122;50.236;11.734;2023-04-25T05:07:56;1.67;;;1.57;;
29030;SDS011;16122;50.236;11.734;2023-04-25T05:10:42;2.23;;;1.70;;
29030;SDS011;16122;50.236;11.734;2023-04-25T05:13:37;2.00;;;1.67;;
29030;SDS011;16122;50.236;11.734;2023-04-25T05:16:16;1.50;;;1.40;;
29030;SDS011;16122;50.236;11.734;2023-04-25T05:18:56;3.80;;;2.20;;
29030;SDS011;16122;50.236;11.734;2023-04-25T05:21:42;2.20;;;1.40;;
29030;SDS011;16122;50.236;11.734;2023-04-25T05:24:26;1.87;;;1.67;;
29030;SDS011;16122;50.236;11.734;2023-04-25T05:27:20;3.80;;;1.50;;
29030;SDS011;16122;50.236;11.734;2023-04-25T05:30:04;1.40;;;1.30;;
29030;SDS011;16122;50.236;11.734;2023-04-25T05:32:35;1.63;;;1.50;;
29030;SDS011;16122;50.236;11.734;2023-04-25T05:35:02;1.50;;;1.40;;
29030;SDS011;16122;50.236;11.734;2023-04-25T05:37:34;1.67;;;1.57;;
29030;SDS011;16122;50.236;11.734;2023-04-25T05:40:09;1.63;;;1.53;;
29030;SDS011;16122;50.236;11.734;2023-04-25T05:43:11;1.87;;;1.77;;
29030;SDS011;16122;50.236;11.734;2023-04-25T05:45:45;2.37;;;1.60;;
29030;SDS011;16122;50.236;11.734;2023-04-25T05:48:27;1.47;;;1.37;;
29030;SDS011;16122;50.236;11.734;2023-04-25T05:51:15;4.47;;;2.20;;
29030;SDS011;16122;50.236;11.734;2023-04-25T05:53:57;1.63;;;1.40;;
29030;SDS011;16122;50.236;11.734;2023-04-25T05:56:23;3.17;;;1.43;;
29030;SDS011;16122;50.236;11.734;2023-04-25T05:58:51;3.10;;;1.50;;
29030;SDS011;16122;50.236;11.734;2023-04-25T06:01:17;1.50;;;1.40;;
29030;SDS011;16122;50.236;11.734;2023-04-25T06:03:43;1.80;;;1.50;;
29030;SDS011;16122;50.236;11.734;2023-04-25T06:06:11;1.40;;;1.30;;
29030;SDS011;16122;50.236;11.734;2023-04-25T06:08:36;1.70;;;1.60;;
29030;SDS011;16122;50.236;11.734;2023-04-25T06:11:03;1.50;;;1.40;;
29030;SDS011;16122;50.236;11.734;2023-04-25T06:13:30;1.30;;;1.20;;
29030;SDS011;16122;50.236;11.734;2023-04-25T06:15:56;2.03;;;1.30;;
29030;SDS011;16122;50.236;11.734;2023-04-25T06:18:22;2.60;;;1.57;;
29030;SDS011;16122;50.236;11.734;2023-04-25T06:20:48;1.43;;;1.33;;
29030;SDS011;16122;50.236;11.734;2023-04-25T06:23:15;3.23;;;1.50;;
29030;SDS011;16122;50.236;11.734;2023-04-25T06:26:00;1.30;;;1.20;;
29030;SDS011;16122;50.236;11.734;2023-04-25T06:28:27;1.20;;;1.10;;
29030;SDS011;16122;50.236;11.734;2023-04-25T06:30:53;1.47;;;1.30;;
29030;SDS011;16122;50.236;11.734;2023-04-25T06:33:19;1.43;;;1.33;;
29030;SDS011;16122;50.236;11.734;2023-04-25T06:35:46;1.80;;;1.60;;
29030;SDS011;16122;50.236;11.734;2023-04-25T06:38:15;1.30;;;1.20;;
29030;SDS011;16122;50.236;11.734;2023-04-25T06:40:45;1.47;;;1.37;;
29030;SDS011;16122;50.236;11.734;2023-04-25T06:43:11;1.37;;;1.27;;
29030;SDS011;16122;50.236;11.734;2023-04-25T06:46:02;1.50;;;1.40;;
29030;SDS011;16122;50.236;11.734;2023-04-25T06:48:30;3.40;;;1.33;;
29030;SDS011;16122;50.236;11.734;2023-04-25T06:50:57;2.87;;;1.77;;
29030;SDS011;16122;50.236;11.734;2023-04-25T06:53:24;3.20;;;2.27;;
29030;SDS011;16122;50.236;11.734;2023-04-25T06:55:56;1.10;;;1.10;;
29030;SDS011;16122;50.236;11.734;2023-04-25T06:58:24;1.40;;;1.30;;
29030;SDS011;16122;50.236;11.734;2023-04-25T07:01:10;1.50;;;1.40;;
29030;SDS011;16122;50.236;11.734;2023-04-25T07:03:36;1.10;;;1.00;;
29030;SDS011;16122;50.236;11.734;2023-04-25T07:06:07;1.30;;;1.20;;
29030;SDS011;16122;50.236;11.734;2023-04-25T07:08:33;1.37;;;1.27;;
29030;SDS011;16122;50.236;11.734;2023-04-25T07:10:59;1.40;;;1.30;;
29030;SDS011;16122;50.236;11.734;2023-04-25T07:13:25;1.37;;;1.27;;
29030;SDS011;16122;50.236;11.734;2023-04-25T07:15:50;1.30;;;1.20;;
29030;SDS011;16122;50.236;11.734;2023-04-25T07:18:18;1.50;;;1.40;;
29030;SDS011;16122;50.236;11.734;2023-04-25T07:20:44;1.30;;;1.20;;
29030;SDS011;16122;50.236;11.734;2023-04-25T07:23:11;1.40;;;1.30;;
29030;SDS011;16122;50.236;11.734;2023-04-25T07:25:37;1.60;;;1.50;;
29030;SDS011;16122;50.236;11.734;2023-04-25T07:28:04;1.90;;;1.40;;
29030;SDS011;16122;50.236;11.734;2023-04-25T07:30:30;1.20;;;1.10;;
29030;SDS011;16122;50.236;11.734;2023-04-25T07:32:56;1.10;;;1.10;;
29030;SDS011;16122;50.236;11.734;2023-04-25T07:35:22;1.23;;;1.13;;
29030;SDS011;16122;50.236;11.734;2023-04-25T07:37:48;1.40;;;1.30;;
29030;SDS011;16122;50.236;11.734;2023-04-25T07:40:17;1.20;;;1.10;;
29030;SDS011;16122;50.236;11.734;2023-04-25T07:42:47;2.70;;;1.40;;
29030;SDS011;16122;50.236;11.734;2023-04-25T07:45:17;1.70;;;1.13;;
29030;SDS011;16122;50.236;11.734;2023-04-25T07:47:43;1.33;;;1.10;;
29030;SDS011;16122;50.236;11.734;2023-04-25T07:50:09;1.50;;;1.40;;
29030;SDS011;16122;50.236;11.734;2023-04-25T07:52:36;1.47;;;1.37;;
29030;SDS011;16122;50.236;11.734;2023-04-25T07:55:12;1.33;;;1.23;;
29030;SDS011;16122;50.236;11.734;2023-04-25T07:57:52;1.40;;;1.30;;
29030;SDS011;16122;50.236;11.734;2023-04-25T08:00:19;1.40;;;1.30;;
29030;SDS011;16122;50.236;11.734;2023-04-25T08:02:52;1.20;;;1.10;;
29030;SDS011;16122;50.236;11.734;2023-04-25T08:05:17;1.13;;;1.03;;
29030;SDS011;16122;50.236;11.734;2023-04-25T08:07:49;1.33;;;1.23;;
29030;SDS011;16122;50.236;11.734;2023-04-25T08:10:15;1.67;;;1.40;;
29030;SDS011;16122;50.236;11.734;2023-04-25T08:12:42;1.50;;;1.40;;
29030;SDS011;16122;50.236;11.734;2023-04-25T08:15:08;1.73;;;1.63;;
29030;SDS011;16122;50.236;11.734;2023-04-25T08:17:37;1.73;;;1.20;;
29030;SDS011;16122;50.236;11.734;2023-04-25T08:20:03;1.57;;;1.47;;
29030;SDS011;16122;50.236;11.734;2023-04-25T08:22:31;1.30;;;1.20;;
29030;SDS011;16122;50.236;11.734;2023-04-25T08:25:27;1.20;;;1.00;;
29030;SDS011;16122;50.236;11.734;2023-04-25T08:27:53;1.50;;;1.40;;
29030;SDS011;16122;50.236;11.734;2023-04-25T08:30:21;1.30;;;1.20;;
29030;SDS011;16122;50.236;11.734;2023-04-25T08:32:47;2.87;;;1.30;;
29030;SDS011;16122;50.236;11.734;2023-04-25T08:35:28;1.30;;;1.20;;
29030;SDS011;16122;50.236;11.734;2023-04-25T08:37:55;1.47;;;1.37;;
29030;SDS011;16122;50.236;11.734;2023-04-25T08:40:22;1.00;;;1.00;;
29030;SDS011;16122;50.236;11.734;2023-04-25T08:43:14;1.13;;;1.07;;
29030;SDS011;16122;50.236;11.734;2023-04-25T08:45:41;1.00;;;1.00;;
29030;SDS011;16122;50.236;11.734;2023-04-25T08:48:11;1.10;;;1.10;;
29030;SDS011;16122;50.236;11.734;2023-04-25T08:50:39;1.23;;;1.13;;
29030;SDS011;16122;50.236;11.734;2023-04-25T08:53:09;1.83;;;1.10;;
29030;SDS011;16122;50.236;11.734;2023-04-25T08:55:38;1.50;;;1.40;;
29030;SDS011;16122;50.236;11.734;2023-04-25T08:58:09;1.87;;;1.20;;
29030;SDS011;16122;50.236;11.734;2023-04-25T09:00:35;1.23;;;1.13;;
29030;SDS011;16122;50.236;11.734;2023-04-25T09:03:01;1.70;;;1.60;;
29030;SDS011;16122;50.236;11.734;2023-04-25T09:05:34;1.33;;;1.23;;
29030;SDS011;16122;50.236;11.734;2023-04-25T09:08:01;1.57;;;1.20;;
29030;SDS011;16122;50.236;11.734;2023-04-25T09:10:27;2.60;;;1.40;;
29030;SDS011;16122;50.236;11.734;2023-04-25T09:16:14;2.47;;;1.17;;
29030;SDS011;16122;50.236;11.734;2023-04-25T09:19:20;1.53;;;1.43;;
29030;SDS011;16122;50.236;11.734;2023-04-25T09:21:54;1.27;;;1.20;;
29030;SDS011;16122;50.236;11.734;2023-04-25T09:24:34;1.40;;;1.30;;
29030;SDS011;16122;50.236;11.734;2023-04-25T09:27:07;1.27;;;1.17;;
29030;SDS011;16122;50.236;11.734;2023-04-25T09:29:37;1.60;;;1.40;;
29030;SDS011;16122;50.236;11.734;2023-04-25T09:32:24;1.57;;;1.47;;
29030;SDS011;16122;50.236;11.734;2023-04-25T09:34:54;1.07;;;1.07;;
29030;SDS011;16122;50.236;11.734;2023-04-25T09:37:29;1.10;;;1.00;;
29030;SDS011;16122;50.236;11.734;2023-04-25T09:40:05;1.03;;;1.00;;
29030;SDS011;16122;50.236;11.734;2023-04-25T09:42:48;1.30;;;1.20;;
29030;SDS011;16122;50.236;11.734;2023-04-25T09:45:14;1.13;;;1.03;;
29030;SDS011;16122;50.236;11.734;2023-04-25T09:47:41;1.23;;;1.17;;
29030;SDS011;16122;50.236;11.734;2023-04-25T09:50:16;1.53;;;1.40;;
29030;SDS011;16122;50.236;11.734;2023-04-25T09:53:02;1.40;;;1.30;;
29030;SDS011;16122;50.236;11.734;2023-04-25T09:55:34;2.80;;;1.30;;
29030;SDS011;16122;50.236;11.734;2023-04-25T09:58:03;1.40;;;1.30;;
29030;SDS011;16122;50.236;11.734;2023-04-25T10:00:32;1.47;;;1.10;;
29030;SDS011;16122;50.236;11.734;2023-04-25T10:03:13;2.70;;;1.30;;
29030;SDS011;16122;50.236;11.734;2023-04-25T10:05:54;1.30;;;1.20;;
29030;SDS011;16122;50.236;11.734;2023-04-25T10:08:21;52.90;;;34.23;;
29030;SDS011;16122;50.236;11.734;2023-04-25T10:10:48;273.60;;;179.63;;
29030;SDS011;16122;50.236;11.734;2023-04-25T10:13:15;316.33;;;218.70;;
29030;SDS011;16122;50.236;11.734;2023-04-25T10:15:41;340.03;;;229.37;;
29030;SDS011;16122;50.236;11.734;2023-04-25T10:18:08;279.57;;;184.33;;
29030;SDS011;16122;50.236;11.734;2023-04-25T10:20:34;242.40;;;168.43;;
29030;SDS011;16122;50.236;11.734;2023-04-25T10:23:04;239.23;;;160.13;;
29030;SDS011;16122;50.236;11.734;2023-04-25T10:25:39;251.70;;;171.63;;
29030;SDS011;16122;50.236;11.734;2023-04-25T10:28:06;241.10;;;159.57;;
29030;SDS011;16122;50.236;11.734;2023-04-25T10:30:32;260.10;;;172.10;;
29030;SDS011;16122;50.236;11.734;2023-04-25T10:32:58;242.37;;;166.67;;
29030;SDS011;16122;50.236;11.734;2023-04-25T10:35:28;230.90;;;160.43;;
29030;SDS011;16122;50.236;11.734;2023-04-25T10:41:06;245.23;;;164.73;;
29030;SDS011;16122;50.236;11.734;2023-04-25T10:43:40;230.03;;;156.17;;
29030;SDS011;16122;50.236;11.734;2023-04-25T10:46:14;217.10;;;151.20;;
29030;SDS011;16122;50.236;11.734;2023-04-25T10:48:58;222.00;;;149.50;;
29030;SDS011;16122;50.236;11.734;2023-04-25T10:51:36;205.60;;;140.20;;
29030;SDS011;16122;50.236;11.734;2023-04-25T10:54:03;191.40;;;129.80;;
29030;SDS011;16122;50.236;11.734;2023-04-25T11:01:36;187.10;;;126.40;;
29030;SDS011;16122;50.236;11.734;2023-04-25T11:04:03;189.90;;;125.60;;
29030;SDS011;16122;50.236;11.734;2023-04-25T11:09:28;183.77;;;122.17;;
29030;SDS011;16122;50.236;11.734;2023-04-25T11:11:54;177.67;;;121.83;;
29030;SDS011;16122;50.236;11.734;2023-04-25T11:14:20;184.60;;;125.30;;
29030;SDS011;16122;50.236;11.734;2023-04-25T11:16:47;180.13;;;123.87;;
29030;SDS011;16122;50.236;11.734;2023-04-25T11:19:19;182.37;;;120.93;;
29030;SDS011;16122;50.236;11.734;2023-04-25T11:21:45;166.93;;;114.40;;
29030;SDS011;16122;50.236;11.734;2023-04-25T11:24:11;160.07;;;112.77;;
29030;SDS011;16122;50.236;11.734;2023-04-25T11:26:37;160.97;;;111.30;;
29030;SDS011;16122;50.236;11.734;2023-04-25T11:29:03;167.63;;;117.57;;
29030;SDS011;16122;50.236;11.734;2023-04-25T11:31:29;158.30;;;108.00;;
29030;SDS011;16122;50.236;11.734;2023-04-25T11:33:58;162.60;;;111.87;;
29030;SDS011;16122;50.236;11.734;2023-04-25T11:36:25;160.57;;;109.67;;
29030;SDS011;16122;50.236;11.734;2023-04-25T11:38:52;156.73;;;108.93;;
29030;SDS011;16122;50.236;11.734;2023-04-25T11:41:19;147.00;;;105.57;;
29030;SDS011;16122;50.236;11.734;2023-04-25T11:43:47;149.60;;;104.87;;
29030;SDS011;16122;50.236;11.734;2023-04-25T11:46:14;146.97;;;104.30;;
29030;SDS011;16122;50.236;11.734;2023-04-25T11:48:41;150.33;;;99.83;;
29030;SDS011;16122;50.236;11.734;2023-04-25T11:51:07;143.10;;;101.30;;
29030;SDS011;16122;50.236;11.734;2023-04-25T11:53:34;149.17;;;101.37;;
29030;SDS011;16122;50.236;11.734;2023-04-25T11:56:01;146.77;;;99.17;;
29030;SDS011;16122;50.236;11.734;2023-04-25T11:58:27;145.80;;;99.30;;
29030;SDS011;16122;50.236;11.734;2023-04-25T12:00:53;145.07;;;97.23;;
29030;SDS011;16122;50.236;11.734;2023-04-25T12:03:19;138.07;;;95.10;;
29030;SDS011;16122;50.236;11.734;2023-04-25T12:05:46;141.80;;;97.77;;
29030;SDS011;16122;50.236;11.734;2023-04-25T12:08:15;139.57;;;93.80;;
29030;SDS011;16122;50.236;11.734;2023-04-25T12:10:42;124.57;;;90.80;;
29030;SDS011;16122;50.236;11.734;2023-04-25T12:15:47;133.03;;;90.93;;
29030;SDS011;16122;50.236;11.734;2023-04-25T12:18:13;131.63;;;88.53;;
29030;SDS011;16122;50.236;11.734;2023-04-25T12:20:38;135.27;;;89.53;;
29030;SDS011;16122;50.236;11.734;2023-04-25T12:23:07;124.03;;;83.73;;
29030;SDS011;16122;50.236;11.734;2023-04-25T12:33:31;112.70;;;79.87;;
29030;SDS011;16122;50.236;11.734;2023-04-25T12:35:57;118.67;;;79.67;;
29030;SDS011;16122;50.236;11.734;2023-04-25T12:38:24;121.77;;;77.87;;
29030;SDS011;16122;50.236;11.734;2023-04-25T12:40:55;111.83;;;75.83;;
29030;SDS011;16122;50.236;11.734;2023-04-25T12:43:22;116.73;;;78.40;;
29030;SDS011;16122;50.236;11.734;2023-04-25T12:45:48;105.00;;;73.57;;
29030;SDS011;16122;50.236;11.734;2023-04-25T12:48:16;109.90;;;72.47;;
29030;SDS011;16122;50.236;11.734;2023-04-25T12:50:42;123.70;;;72.37;;
29030;SDS011;16122;50.236;11.734;2023-04-25T12:53:09;105.37;;;68.07;;
29030;SDS011;16122;50.236;11.734;2023-04-25T12:55:35;97.50;;;65.97;;
29030;SDS011;16122;50.236;11.734;2023-04-25T12:58:01;101.40;;;67.67;;
29030;SDS011;16122;50.236;11.734;2023-04-25T13:00:28;98.93;;;62.57;;
29030;SDS011;16122;50.236;11.734;2023-04-25T13:02:55;99.30;;;65.83;;
29030;SDS011;16122;50.236;11.734;2023-04-25T13:05:21;93.93;;;61.93;;
29030;SDS011;16122;50.236;11.734;2023-04-25T13:07:46;91.03;;;63.57;;
29030;SDS011;16122;50.236;11.734;2023-04-25T13:10:12;91.90;;;62.17;;
29030;SDS011;16122;50.236;11.734;2023-04-25T13:12:38;88.80;;;58.17;;
29030;SDS011;16122;50.236;11.734;2023-04-25T13:15:04;92.13;;;59.10;;
29030;SDS011;16122;50.236;11.734;2023-04-25T13:17:32;89.87;;;57.63;;
29030;SDS011;16122;50.236;11.734;2023-04-25T13:19:58;79.90;;;55.30;;
29030;SDS011;16122;50.236;11.734;2023-04-25T13:22:23;80.10;;;53.10;;
29030;SDS011;16122;50.236;11.734;2023-04-25T13:24:49;76.73;;;53.30;;
29030;SDS011;16122;50.236;11.734;2023-04-25T13:27:15;80.17;;;51.10;;
29030;SDS011;16122;50.236;11.734;2023-04-25T13:29:41;81.90;;;51.80;;
29030;SDS011;16122;50.236;11.734;2023-04-25T13:32:07;77.23;;;49.43;;
29030;SDS011;16122;50.236;11.734;2023-04-25T13:34:34;75.40;;;48.00;;
29030;SDS011;16122;50.236;11.734;2023-04-25T13:37:00;70.50;;;48.10;;
29030;SDS011;16122;50.236;11.734;2023-04-25T13:39:25;70.00;;;46.20;;
29030;SDS011;16122;50.236;11.734;2023-04-25T13:41:51;66.37;;;47.83;;
29030;SDS011;16122;50.236;11.734;2023-04-25T13:44:17;66.40;;;44.93;;
29030;SDS011;16122;50.236;11.734;2023-04-25T13:46:43;69.87;;;47.43;;
29030;SDS011;16122;50.236;11.734;2023-04-25T13:49:09;68.77;;;47.30;;
29030;SDS011;16122;50.236;11.734;2023-04-25T13:51:35;66.13;;;44.97;;
29030;SDS011;16122;50.236;11.734;2023-04-25T13:54:01;69.23;;;45.70;;
29030;SDS011;16122;50.236;11.734;2023-04-25T13:56:27;69.03;;;46.83;;
29030;SDS011;16122;50.236;11.734;2023-04-25T13:58:53;65.63;;;44.83;;
29030;SDS011;16122;50.236;11.734;2023-04-25T14:01:19;64.80;;;43.67;;
29030;SDS011;16122;50.236;11.734;2023-04-25T14:03:46;64.63;;;40.70;;
29030;SDS011;16122;50.236;11.734;2023-04-25T14:06:11;59.67;;;41.20;;
29030;SDS011;16122;50.236;11.734;2023-04-25T14:08:38;60.97;;;40.00;;
29030;SDS011;16122;50.236;11.734;2023-04-25T14:11:04;60.80;;;40.70;;
29030;SDS011;16122;50.236;11.734;2023-04-25T14:13:30;57.30;;;38.03;;
29030;SDS011;16122;50.236;11.734;2023-04-25T14:15:56;58.00;;;38.77;;
29030;SDS011;16122;50.236;11.734;2023-04-25T14:18:22;54.40;;;38.27;;
29030;SDS011;16122;50.236;11.734;2023-04-25T14:20:48;58.40;;;38.60;;
29030;SDS011;16122;50.236;11.734;2023-04-25T14:23:14;56.67;;;39.50;;
29030;SDS011;16122;50.236;11.734;2023-04-25T14:25:39;55.20;;;37.83;;
29030;SDS011;16122;50.236;11.734;2023-04-25T14:28:07;55.73;;;38.00;;
29030;SDS011;16122;50.236;11.734;2023-04-25T14:30:32;52.50;;;35.17;;
29030;SDS011;16122;50.236;11.734;2023-04-25T14:32:58;50.40;;;35.27;;
29030;SDS011;16122;50.236;11.734;2023-04-25T14:35:24;51.20;;;35.57;;
29030;SDS011;16122;50.236;11.734;2023-04-25T14:37:50;48.87;;;32.50;;
29030;SDS011;16122;50.236;11.734;2023-04-25T14:40:16;46.80;;;33.20;;
29030;SDS011;16122;50.236;11.734;2023-04-25T14:42:42;46.97;;;33.00;;
29030;SDS011;16122;50.236;11.734;2023-04-25T14:45:08;45.03;;;30.43;;
29030;SDS011;16122;50.236;11.734;2023-04-25T14:47:35;50.20;;;32.07;;
29030;SDS011;16122;50.236;11.734;2023-04-25T14:50:01;46.23;;;30.67;;
29030;SDS011;16122;50.236;11.734;2023-04-25T14:52:28;47.53;;;30.67;;
29030;SDS011;16122;50.236;11.734;2023-04-25T14:54:54;43.97;;;30.43;;
29030;SDS011;16122;50.236;11.734;2023-04-25T14:57:20;46.53;;;30.60;;
29030;SDS011;16122;50.236;11.734;2023-04-25T14:59:45;40.43;;;28.60;;
29030;SDS011;16122;50.236;11.734;2023-04-25T15:02:11;45.10;;;29.70;;